Time;durP1;ratioP1;P1;durP2;ratioP2;P2;SDS_P1;SDS_P2;PMS_P1;PMS_P2;Temp;Humidity;BMP_temperature;BMP_pressure;BME280_temperature;BME280_humidity;BME280_pressure;Samples;Min_cycle;Max_cycle;Signal;HPM_P1;HPM_P2
2021/12/21 00:00:18;;;;;;;29.23;16.27;;;;;;;-2.06;100.00;97023.94;5010559;28;102558;-62
2021/12/21 00:02:49;;;;;;;25.43;16.70;;;;;;;-2.19;100.00;97016.53;5013185;28;102071;-62
2021/12/21 00:05:19;;;;;;;48.17;17.37;;;;;;;-2.17;100.00;97017.22;5008973;28;104986;-62
2021/12/21 00:07:48;;;;;;;30.23;17.70;;;;;;;-2.15;100.00;97012.66;5009679;28;101883;-62
2021/12/21 00:10:16;;;;;;;32.77;16.17;;;;;;;-2.12;100.00;97014.97;5009603;28;105529;-62
2021/12/21 00:13:00;;;;;;;36.13;15.43;;;;;;;-2.18;100.00;97012.97;5009250;28;105774;-62
2021/12/21 00:15:39;;;;;;;62.80;15.73;;;;;;;-2.45;100.00;97013.19;5009591;28;101852;-62
2021/12/21 00:18:19;;;;;;;82.53;18.03;;;;;;;-2.42;100.00;97012.03;5009275;28;105113;-62
2021/12/21 00:20:54;;;;;;;68.50;16.57;;;;;;;-2.57;100.00;97009.19;5008515;28;103874;-62
2021/12/21 00:23:42;;;;;;;25.67;15.30;;;;;;;-2.53;100.00;97007.91;5009348;28;101844;-62
2021/12/21 00:26:12;;;;;;;24.37;15.80;;;;;;;-2.40;100.00;97018.72;5012205;28;105387;-62
2021/12/21 00:28:47;;;;;;;24.23;16.17;;;;;;;-2.41;100.00;97016.28;5009380;28;102057;-62
2021/12/21 00:31:15;;;;;;;80.43;19.60;;;;;;;-2.48;100.00;97010.88;5042496;27;104804;-62
2021/12/21 00:33:46;;;;;;;49.27;17.17;;;;;;;-2.46;100.00;97008.94;5008928;28;104933;-62
2021/12/21 00:36:14;;;;;;;59.70;17.27;;;;;;;-2.67;100.00;97011.09;5009222;28;101798;-62
2021/12/21 00:38:41;;;;;;;144.33;20.67;;;;;;;-2.70;100.00;97011.41;5009210;28;106122;-62
2021/12/21 00:41:08;;;;;;;21.17;15.07;;;;;;;-2.69;100.00;97013.03;5008690;28;103769;-62
2021/12/21 00:43:35;;;;;;;28.73;15.60;;;;;;;-2.75;100.00;97008.44;5010204;28;101843;-62
2021/12/21 00:46:02;;;;;;;103.37;16.73;;;;;;;-2.89;100.00;97006.38;5009138;28;105242;-62
2021/12/21 00:48:31;;;;;;;23.23;14.87;;;;;;;-2.90;100.00;97004.75;5011857;28;105837;-62
2021/12/21 00:51:04;;;;;;;140.50;18.53;;;;;;;-2.97;100.00;97002.91;5008885;28;104732;-62
2021/12/21 00:53:30;;;;;;;28.90;15.10;;;;;;;-3.03;100.00;97004.34;5008150;28;105344;-62
2021/12/21 00:55:58;;;;;;;23.17;14.10;;;;;;;-3.02;100.00;97000.78;5008945;28;101946;-62
2021/12/21 00:58:25;;;;;;;19.70;13.83;;;;;;;-2.88;100.00;97004.63;5008841;28;104070;-62
2021/12/21 01:00:52;;;;;;;21.07;14.77;;;;;;;-2.73;100.00;96997.88;5008256;28;104946;-62
2021/12/21 01:03:19;;;;;;;24.57;16.00;;;;;;;-2.83;100.00;96991.97;5008728;28;101997;-62
2021/12/21 01:05:52;;;;;;;28.57;15.47;;;;;;;-2.90;100.00;96988.34;5008746;28;104989;-62
2021/12/21 01:08:21;;;;;;;22.13;14.50;;;;;;;-2.87;100.00;96993.22;5008110;28;105575;-61
2021/12/21 01:11:00;;;;;;;20.80;13.80;;;;;;;-2.99;100.00;96994.47;5011981;28;101853;-62
2021/12/21 01:13:36;;;;;;;19.03;13.73;;;;;;;-3.00;100.00;96988.44;5008053;28;104395;-62
2021/12/21 01:19:02;;;;;;;22.07;14.90;;;;;;;-3.00;100.00;96983.22;5004755;28;105725;-62
2021/12/21 01:21:33;;;;;;;23.90;15.07;;;;;;;-3.04;100.00;96983.69;5007931;28;105167;-62
2021/12/21 01:27:09;;;;;;;22.73;14.77;;;;;;;-3.21;100.00;96982.78;5004672;28;105210;-62
2021/12/21 01:29:44;;;;;;;24.07;14.57;;;;;;;-3.20;100.00;96981.81;5007520;28;105739;-62
2021/12/21 01:32:18;;;;;;;21.83;14.43;;;;;;;-3.17;100.00;96983.28;5007689;28;101914;-62
2021/12/21 01:34:56;;;;;;;26.13;15.20;;;;;;;-2.97;100.00;96982.09;5011250;28;105498;-62
2021/12/21 01:37:28;;;;;;;26.43;15.60;;;;;;;-2.85;100.00;96976.50;5008281;28;101873;-62
2021/12/21 01:40:09;;;;;;;21.80;14.60;;;;;;;-2.70;100.00;96969.75;5008281;28;105420;-62
2021/12/21 01:42:52;;;;;;;24.10;14.33;;;;;;;-2.80;100.00;96965.66;5007697;28;105483;-62
2021/12/21 01:50:51;;;;;;;26.60;15.83;;;;;;;-3.05;100.00;96964.69;5007482;28;105020;-62
2021/12/21 01:53:18;;;;;;;28.53;16.70;;;;;;;-2.92;100.00;96965.09;5041700;27;101953;-62
2021/12/21 01:55:47;;;;;;;25.50;16.30;;;;;;;-3.03;100.00;96952.34;5007656;28;105099;-62
2021/12/21 01:58:15;;;;;;;28.90;16.10;;;;;;;-2.92;100.00;96954.69;5010474;28;102013;-62
2021/12/21 02:00:42;;;;;;;44.90;16.43;;;;;;;-2.89;100.00;96956.16;5007866;28;105744;-61
2021/12/21 02:03:09;;;;;;;21.20;14.10;;;;;;;-2.94;100.00;96951.41;5007239;28;105521;-62
2021/12/21 02:05:38;;;;;;;22.40;14.03;;;;;;;-3.03;100.00;96948.91;5007747;28;102016;-62
2021/12/21 02:08:06;;;;;;;20.43;13.80;;;;;;;-3.02;100.00;96948.75;5007809;28;105148;-62
2021/12/21 02:10:33;;;;;;;22.20;13.83;;;;;;;-3.08;100.00;96946.78;5007182;28;105381;-62
2021/12/21 02:13:03;;;;;;;19.73;14.23;;;;;;;-3.00;100.00;96944.19;5007766;28;101911;-62
2021/12/21 02:15:30;;;;;;;22.03;13.80;;;;;;;-3.08;100.00;96938.13;5009277;28;102528;-62
2021/12/21 02:20:47;;;;;;;45.00;13.63;;;;;;;-2.89;100.00;96936.13;5009167;28;102325;-62
2021/12/21 02:23:18;;;;;;;35.20;12.37;;;;;;;-2.88;100.00;96929.16;5008697;28;103179;-62
2021/12/21 02:26:05;;;;;;;17.47;11.80;;;;;;;-2.88;100.00;96924.78;5007721;28;102033;-62
2021/12/21 02:28:46;;;;;;;18.03;12.47;;;;;;;-2.95;100.00;96928.16;5007278;28;105684;-62
2021/12/21 02:31:13;;;;;;;20.07;11.57;;;;;;;-2.99;100.00;96922.44;5005908;28;105966;-62
2021/12/21 02:33:40;;;;;;;13.20;10.67;;;;;;;-2.92;100.00;96917.41;5007619;28;101939;-62
2021/12/21 02:36:09;;;;;;;22.90;12.57;;;;;;;-3.00;100.00;96917.38;5010555;28;104982;-62
2021/12/21 02:38:36;;;;;;;20.33;13.13;;;;;;;-2.92;100.00;96920.03;5010784;28;105847;-62
2021/12/21 02:41:04;;;;;;;20.33;12.73;;;;;;;-3.07;100.00;96913.78;5014235;28;102474;-62
2021/12/21 02:43:34;;;;;;;18.97;13.50;;;;;;;-3.07;100.00;96919.78;5010495;28;105258;-62
2021/12/21 02:46:01;;;;;;;18.50;12.87;;;;;;;-2.85;100.00;96908.84;5010958;28;101688;-62
2021/12/21 02:48:28;;;;;;;20.37;14.13;;;;;;;-2.99;100.00;96906.84;5010966;28;105630;-62
2021/12/21 02:50:56;;;;;;;27.67;13.90;;;;;;;-2.90;100.00;96902.50;5010349;28;105056;-62
2021/12/21 02:53:25;;;;;;;21.07;12.73;;;;;;;-3.09;100.00;96900.09;5010754;28;102117;-62
2021/12/21 02:55:51;;;;;;;21.80;13.77;;;;;;;-2.96;100.00;96898.72;5010683;28;105204;-62
2021/12/21 02:58:18;;;;;;;26.70;14.60;;;;;;;-2.96;100.00;96903.13;5011058;28;105352;-62
2021/12/21 03:00:47;;;;;;;24.67;13.73;;;;;;;-2.96;100.00;96901.31;5010684;28;101904;-62
2021/12/21 03:03:14;;;;;;;19.37;14.30;;;;;;;-2.95;100.00;96905.53;5013506;28;105494;-62
2021/12/21 03:05:46;;;;;;;18.07;13.27;;;;;;;-2.99;100.00;96906.00;5010465;28;101908;-62
2021/12/21 03:08:17;;;;;;;20.90;13.23;;;;;;;-2.97;100.00;96899.69;5012215;28;102815;-62
2021/12/21 03:11:04;;;;;;;27.73;14.90;;;;;;;-2.99;100.00;96904.25;5010029;28;106100;-62
2021/12/21 03:16:17;;;;;;;19.40;13.67;;;;;;;-3.06;100.00;96892.78;5010320;28;105578;-62
2021/12/21 03:18:44;;;;;;;20.80;13.83;;;;;;;-3.16;100.00;96894.69;5009820;28;104132;-62
2021/12/21 03:21:11;;;;;;;23.77;14.70;;;;;;;-3.09;100.00;96895.72;5010307;28;101853;-62
2021/12/21 03:23:40;;;;;;;18.80;12.77;;;;;;;-3.16;100.00;96888.69;5010193;28;105669;-62
2021/12/21 03:26:09;;;;;;;20.07;12.87;;;;;;;-3.21;100.00;96896.13;5013015;28;106011;-62
2021/12/21 03:28:36;;;;;;;26.37;12.97;;;;;;;-3.33;100.00;96887.75;5010225;28;103601;-62
2021/12/21 03:31:03;;;;;;;20.23;12.80;;;;;;;-3.41;100.00;96892.09;5008855;28;105672;-62
2021/12/21 03:33:30;;;;;;;19.40;12.87;;;;;;;-3.68;100.00;96885.25;5009087;28;101780;-62
2021/12/21 03:36:00;;;;;;;25.93;13.33;;;;;;;-3.67;100.00;96886.88;5008958;28;103834;-62
2021/12/21 03:38:27;;;;;;;20.57;13.10;;;;;;;-3.89;100.00;96889.09;5010027;28;103220;-62
2021/12/21 03:41:01;;;;;;;20.90;13.33;;;;;;;-3.88;100.00;96890.78;5009000;28;102074;-62
2021/12/21 03:43:30;;;;;;;20.33;13.47;;;;;;;-3.78;100.00;96894.09;5008914;28;105102;-62
2021/12/21 03:46:04;;;;;;;21.50;13.33;;;;;;;-3.78;100.00;96889.72;5007988;28;106640;-62
2021/12/21 03:48:32;;;;;;;20.03;12.70;;;;;;;-3.86;100.00;96899.22;5012250;28;102088;-62
2021/12/21 03:50:59;;;;;;;16.70;11.97;;;;;;;-3.90;100.00;96898.72;5008331;28;105654;-62
2021/12/21 03:53:26;;;;;;;18.77;12.27;;;;;;;-3.84;100.00;96892.06;5008814;28;102241;-62
2021/12/21 03:56:04;;;;;;;17.80;13.20;;;;;;;-3.83;100.00;96885.94;5008787;28;103983;-62
2021/12/21 03:58:32;;;;;;;22.10;13.60;;;;;;;-3.96;100.00;96888.09;5008106;28;105706;-62
2021/12/21 04:01:00;;;;;;;22.77;13.43;;;;;;;-3.93;100.00;96880.81;5010208;28;101672;-62
2021/12/21 04:03:27;;;;;;;19.33;12.87;;;;;;;-3.90;100.00;96879.69;5008558;28;104822;-62
2021/12/21 04:05:54;;;;;;;22.70;13.63;;;;;;;-3.95;100.00;96874.97;5008052;28;105042;-62
2021/12/21 04:08:21;;;;;;;21.70;11.97;;;;;;;-4.26;100.00;96881.47;5011813;28;102287;-62
2021/12/21 04:10:48;;;;;;;18.97;12.53;;;;;;;-4.31;100.00;96883.69;5008049;28;105431;-62
2021/12/21 04:13:15;;;;;;;33.27;12.90;;;;;;;-4.31;100.00;96877.72;5008526;28;101900;-62
2021/12/21 04:15:49;;;;;;;71.83;13.17;;;;;;;-4.46;100.00;96869.63;5008420;28;105554;-62
2021/12/21 04:18:18;;;;;;;140.70;14.40;;;;;;;-4.65;100.00;96877.50;5007661;28;105034;-62
2021/12/21 04:20:46;;;;;;;13.87;10.10;;;;;;;-4.53;100.00;96873.72;5009580;28;101870;-62
2021/12/21 04:23:13;;;;;;;115.47;15.13;;;;;;;-4.55;100.00;96872.25;5008054;28;105302;-62
2021/12/21 04:25:41;;;;;;;13.50;10.07;;;;;;;-4.46;100.00;96874.81;5007585;28;103899;-62
2021/12/21 04:28:08;;;;;;;21.77;10.63;;;;;;;-4.45;100.00;96876.44;5008172;28;101877;-62
2021/12/21 04:30:35;;;;;;;35.27;12.03;;;;;;;-4.45;100.00;96870.41;4968154;28;1229333;-62
2021/12/21 04:33:04;;;;;;;14.43;11.13;;;;;;;-4.40;100.00;96868.19;5009361;28;101807;-62
2021/12/21 04:35:31;;;;;;;17.17;11.23;;;;;;;-4.48;100.00;96868.13;5009127;28;105623;-62
2021/12/21 04:37:58;;;;;;;18.17;12.43;;;;;;;-4.37;100.00;96873.91;5008809;28;105545;-62
2021/12/21 04:40:38;;;;;;;16.30;11.73;;;;;;;-4.09;100.00;96877.25;5009181;28;101938;-62
2021/12/21 04:43:06;;;;;;;16.73;12.00;;;;;;;-4.06;100.00;96882.16;5008882;28;104958;-62
2021/12/21 04:45:32;;;;;;;18.40;12.77;;;;;;;-4.24;100.00;96878.75;5008544;28;104353;-62
2021/12/21 04:48:00;;;;;;;20.37;13.90;;;;;;;-4.39;100.00;96870.66;5009229;28;101981;-62
2021/12/21 04:50:29;;;;;;;20.53;13.43;;;;;;;-4.20;100.00;96878.28;5008891;28;105109;-62
2021/12/21 04:52:56;;;;;;;62.23;15.03;;;;;;;-4.23;100.00;96868.22;5011636;28;105158;-62
2021/12/21 04:55:23;;;;;;;60.53;15.83;;;;;;;-4.18;100.00;96875.56;5008688;28;105289;-62
2021/12/21 04:57:50;;;;;;;39.37;11.60;;;;;;;-4.20;100.00;96867.91;5007514;28;105398;-62
2021/12/21 05:00:17;;;;;;;16.73;11.90;;;;;;;-4.17;100.00;96871.97;5010380;28;101705;-62
2021/12/21 05:02:45;;;;;;;25.67;11.67;;;;;;;-4.11;100.00;96873.97;5008643;28;104800;-62
2021/12/21 05:05:13;;;;;;;60.53;13.03;;;;;;;-4.02;100.00;96867.91;5009658;28;103191;-62
2021/12/21 05:07:46;;;;;;;14.13;10.67;;;;;;;-3.99;100.00;96873.63;5008544;28;102140;-62
2021/12/21 05:10:14;;;;;;;35.87;11.97;;;;;;;-4.16;100.00;96882.22;5010143;28;102312;-62
2021/12/21 05:12:41;;;;;;;15.27;11.13;;;;;;;-4.16;100.00;96881.44;5008114;28;105231;-62
2021/12/21 05:15:09;;;;;;;15.17;11.70;;;;;;;-3.98;100.00;96884.84;5012183;28;101965;-62
2021/12/21 05:17:36;;;;;;;16.60;11.80;;;;;;;-4.00;100.00;96892.78;5007867;28;105176;-62
2021/12/21 05:20:04;;;;;;;18.37;12.83;;;;;;;-3.99;100.00;96888.41;5008527;28;102011;-62
2021/12/21 05:22:31;;;;;;;24.97;13.60;;;;;;;-3.94;100.00;96881.78;5008320;28;105125;-62
2021/12/21 05:24:59;;;;;;;19.77;12.93;;;;;;;-4.07;100.00;96883.94;5007954;28;105262;-62
2021/12/21 05:27:26;;;;;;;23.23;13.27;;;;;;;-4.18;100.00;96888.53;5009228;28;101932;-62
2021/12/21 05:29:52;;;;;;;17.10;12.07;;;;;;;-4.14;100.00;96885.47;5008337;28;104780;-62
2021/12/21 05:32:19;;;;;;;22.97;13.27;;;;;;;-4.25;100.00;96883.09;5007167;28;105029;-62
2021/12/21 05:34:46;;;;;;;18.57;12.07;;;;;;;-4.25;100.00;96887.50;5009754;28;101789;-62
2021/12/21 05:37:13;;;;;;;20.07;12.13;;;;;;;-4.32;100.00;96886.47;5011272;28;105131;-62
2021/12/21 05:39:51;;;;;;;20.37;13.07;;;;;;;-4.31;100.00;96896.69;5009193;28;101884;-62
2021/12/21 05:42:20;;;;;;;13.83;11.03;;;;;;;-4.31;100.00;96893.28;5008413;28;103711;-62
2021/12/21 05:44:47;;;;;;;14.43;10.53;;;;;;;-4.17;100.00;96892.75;5007423;28;104994;-62
2021/12/21 05:47:14;;;;;;;30.17;11.67;;;;;;;-4.14;100.00;96892.47;5008122;28;101854;-62
2021/12/21 05:49:41;;;;;;;16.80;11.30;;;;;;;-4.07;100.00;96896.09;5007831;28;104865;-62
2021/12/21 05:52:08;;;;;;;39.97;12.03;;;;;;;-4.31;100.00;96901.88;5007632;28;105502;-62
2021/12/21 05:54:49;;;;;;;15.33;11.40;;;;;;;-4.40;100.00;96902.75;5008309;28;101862;-62
2021/12/21 05:57:17;;;;;;;26.27;13.20;;;;;;;-4.34;100.00;96894.38;5008351;28;105899;-62
2021/12/21 05:59:45;;;;;;;36.00;13.00;;;;;;;-4.33;100.00;96898.63;5009078;28;105484;-62
2021/12/21 06:02:13;;;;;;;19.93;12.97;;;;;;;-4.27;100.00;96894.63;5008155;28;105471;-62
2021/12/21 06:04:41;;;;;;;19.77;12.73;;;;;;;-4.10;100.00;96899.00;5007803;28;105282;-62
2021/12/21 06:07:08;;;;;;;18.47;12.50;;;;;;;-3.94;100.00;96897.38;5008286;28;101919;-62
2021/12/21 06:09:35;;;;;;;23.10;14.73;;;;;;;-3.86;100.00;96910.44;5008051;28;105640;-62
2021/12/21 06:12:10;;;;;;;20.50;12.80;;;;;;;-3.72;100.00;96906.50;5007604;28;105752;-62
2021/12/21 06:23:09;;;;;;;15.33;10.27;;;;;;;-3.65;100.00;96913.50;5007973;28;105200;-61
2021/12/21 06:25:55;;;;;;;14.77;11.40;;;;;;;-3.92;100.00;96912.81;5007299;28;105667;-61
2021/12/21 06:28:22;;;;;;;12.03;9.37;;;;;;;-4.11;100.00;96911.16;5007065;28;101889;-61
2021/12/21 06:30:50;;;;;;;14.20;9.70;;;;;;;-4.04;100.00;96911.41;5007285;28;105879;-61
2021/12/21 06:33:19;;;;;;;13.67;9.43;;;;;;;-4.10;100.00;96915.38;5007524;28;104995;-62
2021/12/21 06:36:01;;;;;;;17.83;11.90;;;;;;;-4.11;100.00;96913.75;5007428;28;102033;-62
2021/12/21 06:38:28;;;;;;;15.97;11.60;;;;;;;-4.11;100.00;96920.72;4930500;28;105089;-62
2021/12/21 06:40:55;;;;;;;22.60;13.47;;;;;;;-3.96;100.00;96924.44;4929919;28;104645;-62
2021/12/21 06:43:23;;;;;;;22.50;13.87;;;;;;;-4.05;100.00;96922.75;4934049;28;101972;-62
2021/12/21 06:45:55;;;;;;;20.03;13.50;;;;;;;-3.98;100.00;96914.19;4946038;28;102662;-62
2021/12/21 06:51:15;;;;;;;21.53;13.50;;;;;;;-4.02;100.00;96917.25;4930471;28;105557;-62
2021/12/21 06:53:49;;;;;;;20.87;13.70;;;;;;;-4.03;100.00;96924.25;4930191;28;105424;-61
2021/12/21 06:56:20;;;;;;;24.07;13.67;;;;;;;-3.91;100.00;96928.25;4930369;28;101936;-62
2021/12/21 06:58:47;;;;;;;22.37;13.60;;;;;;;-3.87;100.00;96926.16;4930508;28;104102;-61
2021/12/21 07:01:15;;;;;;;20.67;13.27;;;;;;;-4.08;100.00;96929.06;4930040;28;105741;-62
2021/12/21 07:03:44;;;;;;;24.53;11.93;;;;;;;-3.97;100.00;96926.25;4929822;28;102507;-62
2021/12/21 07:06:12;;;;;;;30.70;14.57;;;;;;;-3.86;100.00;96926.03;4932931;28;103760;-61
2021/12/21 07:08:46;;;;;;;26.63;13.17;;;;;;;-3.91;100.00;96923.06;4947016;28;101926;-62
2021/12/21 07:11:19;;;;;;;34.07;14.40;;;;;;;-4.12;100.00;96927.72;4963223;28;105397;-62
2021/12/21 07:19:17;;;;;;;33.43;13.20;;;;;;;-3.87;100.00;96929.56;4987427;28;102564;-62
2021/12/21 07:21:44;;;;;;;29.77;13.23;;;;;;;-3.83;100.00;96936.09;4988374;28;106469;-62
2021/12/21 07:24:11;;;;;;;33.53;14.23;;;;;;;-3.96;100.00;96934.84;4989629;28;102254;-62
2021/12/21 07:26:38;;;;;;;48.73;14.67;;;;;;;-3.56;100.00;96932.63;4991499;28;102404;-61
2021/12/21 07:29:05;;;;;;;43.30;14.33;;;;;;;-3.55;100.00;96929.84;4994591;28;102826;-62
2021/12/21 07:31:33;;;;;;;28.47;16.77;;;;;;;-3.67;100.00;96931.03;4991484;28;102814;-62
2021/12/21 07:34:00;;;;;;;53.30;30.73;;;;;;;-3.58;100.00;96926.72;4991070;28;103073;-62
2021/12/21 07:36:30;;;;;;;40.93;24.30;;;;;;;-3.41;100.00;96929.31;4991443;28;101838;-62
2021/12/21 07:38:58;;;;;;;47.00;25.43;;;;;;;-3.37;100.00;96925.44;4991336;28;102523;-61
2021/12/21 07:41:25;;;;;;;46.67;25.57;;;;;;;-3.25;100.00;96923.41;4990651;28;102813;-62
2021/12/21 07:43:52;;;;;;;44.93;25.17;;;;;;;-3.24;100.00;96920.66;4991439;28;102072;-61
2021/12/21 07:46:20;;;;;;;44.87;18.20;;;;;;;-3.24;100.00;96927.63;4989802;28;105410;-62
2021/12/21 07:48:47;;;;;;;44.90;22.90;;;;;;;-3.25;100.00;96933.81;4989199;28;106018;-62
2021/12/21 07:51:15;;;;;;;35.27;17.00;;;;;;;-3.15;100.00;96930.16;4996464;28;101935;-62
2021/12/21 07:53:45;;;;;;;26.70;16.10;;;;;;;-3.25;100.00;96926.84;5010154;28;102535;-62
2021/12/21 07:56:13;;;;;;;132.67;18.13;;;;;;;-3.45;100.00;96919.38;5005239;28;101891;-62
2021/12/21 07:58:41;;;;;;;45.87;14.67;;;;;;;-3.55;100.00;96919.44;5010799;28;102337;-62
2021/12/21 08:01:08;;;;;;;33.80;14.70;;;;;;;-3.41;100.00;96916.31;5003346;28;104091;-61
2021/12/21 08:03:36;;;;;;;26.67;16.47;;;;;;;-3.30;100.00;96921.25;5010644;28;101875;-62
2021/12/21 08:06:05;;;;;;;77.13;18.67;;;;;;;-3.27;100.00;96920.16;5010848;28;104000;-62
2021/12/21 08:08:34;;;;;;;23.40;14.67;;;;;;;-3.41;100.00;96926.72;5008725;28;105784;-62
2021/12/21 08:11:12;;;;;;;50.00;15.40;;;;;;;-3.38;100.00;96920.41;5010813;28;102175;-61
2021/12/21 08:13:41;;;;;;;108.97;18.03;;;;;;;-3.46;100.00;96918.56;5013996;28;102551;-62
2021/12/21 08:16:09;;;;;;;79.20;16.27;;;;;;;-3.46;100.00;96925.53;5010752;28;101783;-62
2021/12/21 08:18:36;;;;;;;85.37;19.77;;;;;;;-3.44;100.00;96926.22;5010870;28;102353;-62
2021/12/21 08:21:04;;;;;;;33.63;15.90;;;;;;;-3.40;100.00;96925.75;5009970;28;102573;-61
2021/12/21 08:23:31;;;;;;;93.87;17.87;;;;;;;-3.48;100.00;96920.50;5010653;28;101860;-61
2021/12/21 08:25:58;;;;;;;28.83;16.70;;;;;;;-3.34;100.00;96922.53;5010668;28;102437;-62
2021/12/21 08:28:26;;;;;;;96.40;19.13;;;;;;;-3.69;100.00;96920.00;5008487;28;105617;-61
2021/12/21 08:30:54;;;;;;;58.80;15.67;;;;;;;-3.80;100.00;96925.44;5008477;28;101962;-62
2021/12/21 08:33:21;;;;;;;27.30;15.13;;;;;;;-3.70;100.00;96920.97;5010747;28;105616;-62
2021/12/21 08:35:48;;;;;;;142.77;19.80;;;;;;;-3.91;100.00;96924.81;5008998;28;102420;-65
2021/12/21 08:38:18;;;;;;;64.47;15.77;;;;;;;-3.82;100.00;96929.94;5008977;28;104856;-62
2021/12/21 08:40:49;;;;;;;97.07;17.20;;;;;;;-3.74;100.00;96935.22;5009885;28;103261;-62
2021/12/21 08:43:18;;;;;;;32.57;17.10;;;;;;;-3.62;100.00;96939.22;5010308;28;101683;-62
2021/12/21 08:45:51;;;;;;;37.03;19.57;;;;;;;-3.33;100.00;96926.75;5010378;28;101795;-62
2021/12/21 08:48:19;;;;;;;27.80;16.43;;;;;;;-2.84;100.00;96931.28;5008602;28;105611;-62
2021/12/21 08:50:47;;;;;;;30.73;17.60;;;;;;;-2.83;100.00;96930.34;5008655;28;101830;-62
2021/12/21 08:53:15;;;;;;;35.00;17.33;;;;;;;-3.03;100.00;96936.72;5008667;28;104873;-62
2021/12/21 08:55:42;;;;;;;30.07;17.27;;;;;;;-3.02;100.00;96937.53;5011484;28;105181;-62
2021/12/21 08:58:10;;;;;;;37.83;18.63;;;;;;;-2.81;100.00;96931.00;5007207;28;105163;-63
2021/12/21 09:00:38;;;;;;;35.10;17.57;;;;;;;-2.80;100.00;96927.41;5007291;28;105043;-63
2021/12/21 09:03:07;;;;;;;27.70;17.03;;;;;;;-2.82;100.00;96929.38;5006114;28;102085;-61
2021/12/21 09:05:35;;;;;;;27.80;15.83;;;;;;;-2.68;100.00;96931.38;5009182;28;103207;-60
2021/12/21 09:08:04;;;;;;;32.17;16.13;;;;;;;-2.76;100.00;96927.91;5005670;28;106660;-61
2021/12/21 09:10:31;;;;;;;21.50;14.37;;;;;;;-2.86;100.00;96943.66;5004884;28;102148;-61
2021/12/21 09:12:59;;;;;;;27.70;15.20;;;;;;;-2.80;100.00;96942.22;5009151;28;102411;-62
2021/12/21 09:15:27;;;;;;;25.30;16.80;;;;;;;-2.93;100.00;96937.44;5007136;28;106046;-62
2021/12/21 09:17:55;;;;;;;26.83;15.87;;;;;;;-2.81;100.00;96931.00;5011634;28;102266;-61
2021/12/21 09:20:27;;;;;;;31.47;16.53;;;;;;;-2.56;100.00;96929.31;5004706;28;105749;-61
2021/12/21 09:22:57;;;;;;;51.83;16.80;;;;;;;-2.81;100.00;96924.97;5009518;28;101739;-61
2021/12/21 09:25:25;;;;;;;26.03;16.10;;;;;;;-2.86;100.00;96930.63;5000470;28;105892;-62
2021/12/21 09:27:52;;;;;;;40.53;16.13;;;;;;;-2.87;100.00;96928.19;5007162;28;106019;-62
2021/12/21 09:30:21;;;;;;;29.17;16.83;;;;;;;-2.70;100.00;96922.09;5006908;28;102049;-62
2021/12/21 09:32:48;;;;;;;27.20;16.23;;;;;;;-2.32;100.00;96919.81;5007603;28;105267;-62
2021/12/21 09:35:16;;;;;;;26.90;16.03;;;;;;;-2.42;100.00;96932.13;5008626;28;103066;-63
2021/12/21 09:37:46;;;;;;;29.97;15.00;;;;;;;-2.99;100.00;96927.66;5008067;28;101814;-63
2021/12/21 09:40:15;;;;;;;23.93;14.73;;;;;;;-3.18;100.00;96927.84;5012191;28;102693;-63
2021/12/21 09:42:43;;;;;;;25.63;14.83;;;;;;;-3.13;100.00;96925.59;5008070;28;101990;-63
2021/12/21 09:45:11;;;;;;;26.40;14.23;;;;;;;-3.08;100.00;96917.31;5008879;28;102336;-62
2021/12/21 09:47:38;;;;;;;23.63;13.93;;;;;;;-3.04;100.00;96909.09;5003701;28;107067;-63
2021/12/21 09:50:08;;;;;;;24.37;14.20;;;;;;;-2.84;100.00;96915.69;5007130;28;101802;-62
2021/12/21 09:52:35;;;;;;;22.23;13.77;;;;;;;-2.53;100.00;96916.81;5007811;28;105438;-63
2021/12/21 09:55:06;;;;;;;22.43;13.83;;;;;;;-2.51;100.00;96914.03;5004074;28;105677;-62
2021/12/21 09:57:34;;;;;;;22.33;14.80;;;;;;;-2.44;100.00;96913.25;4987954;28;101869;-62
2021/12/21 10:00:01;;;;;;;23.03;14.60;;;;;;;-2.49;100.00;96910.31;4988003;28;105164;-62
2021/12/21 10:02:35;;;;;;;20.93;14.13;;;;;;;-2.21;100.00;96903.88;4989318;28;102441;-62
2021/12/21 10:05:08;;;;;;;25.77;13.50;;;;;;;-2.24;100.00;96904.19;4989198;28;102396;-62
2021/12/21 10:07:35;;;;;;;23.17;14.53;;;;;;;-2.30;100.00;96904.03;4993152;28;105000;-62
2021/12/21 10:10:09;;;;;;;25.60;14.70;;;;;;;-2.45;100.00;96906.44;5007814;28;101855;-62
2021/12/21 10:12:39;;;;;;;24.03;14.97;;;;;;;-2.31;100.00;96905.81;5008717;28;102296;-63
2021/12/21 10:15:09;;;;;;;23.03;14.67;;;;;;;-2.42;100.00;96905.28;5006539;28;105344;-62
2021/12/21 10:17:37;;;;;;;22.17;14.00;;;;;;;-2.52;100.00;96904.63;5007403;28;102298;-62
2021/12/21 10:20:06;;;;;;;18.83;13.23;;;;;;;-2.33;100.00;96901.72;5007258;28;105374;-63
2021/12/21 10:22:33;;;;;;;20.40;13.87;;;;;;;-2.24;100.00;96898.97;5006915;28;103799;-62
2021/12/21 10:25:00;;;;;;;24.03;13.83;;;;;;;-2.19;100.00;96894.09;5012492;28;101676;-62
2021/12/21 10:27:29;;;;;;;21.10;13.73;;;;;;;-1.91;100.00;96894.66;5006467;28;104263;-63
2021/12/21 10:29:59;;;;;;;39.17;19.43;;;;;;;-1.77;100.00;96892.22;5008834;28;102005;-62
2021/12/21 10:32:28;;;;;;;30.10;17.53;;;;;;;-1.82;100.00;96885.84;5007069;28;106155;-62
2021/12/21 10:34:58;;;;;;;22.53;14.47;;;;;;;-1.63;100.00;96894.19;4990302;28;106570;-62
2021/12/21 10:37:29;;;;;;;21.60;14.30;;;;;;;-1.54;100.00;96887.97;5009330;28;102190;-62
2021/12/21 10:40:08;;;;;;;19.03;12.57;;;;;;;-1.83;100.00;96885.06;5007353;28;105219;-62
2021/12/21 10:42:50;;;;;;;18.63;14.23;;;;;;;-1.82;100.00;96884.06;5006922;28;104018;-62
2021/12/21 10:45:18;;;;;;;21.83;14.53;;;;;;;-1.85;100.00;96889.63;5010954;28;101944;-62
2021/12/21 10:47:46;;;;;;;73.37;29.03;;;;;;;-1.63;100.00;96894.19;5006627;28;105062;-62
2021/12/21 10:50:14;;;;;;;22.57;14.27;;;;;;;-1.85;100.00;96881.81;5007250;28;101908;-62
2021/12/21 10:52:42;;;;;;;27.60;14.90;;;;;;;-1.90;100.00;96891.91;5007429;28;104205;-62
2021/12/21 10:55:10;;;;;;;20.77;13.17;;;;;;;-1.87;100.00;96885.56;5006743;28;105404;-62
2021/12/21 10:57:37;;;;;;;18.73;13.47;;;;;;;-2.09;100.00;96886.19;5010787;28;102071;-62
2021/12/21 11:00:14;;;;;;;20.27;13.03;;;;;;;-1.94;100.00;96880.16;5010768;28;102367;-62
2021/12/21 11:02:43;;;;;;;17.90;12.63;;;;;;;-1.98;100.00;96883.25;5003524;28;102697;-62
2021/12/21 11:05:15;;;;;;;19.27;12.43;;;;;;;-1.93;100.00;96875.75;5010121;28;102139;-62
2021/12/21 11:07:46;;;;;;;19.63;13.27;;;;;;;-1.99;100.00;96866.81;5013490;28;105635;-62
2021/12/21 11:10:19;;;;;;;18.90;13.60;;;;;;;-1.81;100.00;96872.66;5010280;28;101894;-62
2021/12/21 11:12:48;;;;;;;19.67;13.43;;;;;;;-1.82;100.00;96867.59;5010659;28;104334;-62
2021/12/21 11:15:18;;;;;;;21.47;14.00;;;;;;;-1.73;100.00;96866.66;5010438;28;102721;-62
2021/12/21 11:17:45;;;;;;;18.63;12.20;;;;;;;-1.87;100.00;96860.28;5006381;28;102885;-62
2021/12/21 11:20:14;;;;;;;19.10;13.27;;;;;;;-1.63;100.00;96852.47;5002946;28;102970;-62
2021/12/21 11:22:43;;;;;;;17.37;12.50;;;;;;;-1.52;100.00;96849.53;5010247;28;102659;-62
2021/12/21 11:25:11;;;;;;;20.17;13.77;;;;;;;-1.51;100.00;96855.56;5010394;28;102160;-62
2021/12/21 11:27:43;;;;;;;16.93;12.60;;;;;;;-1.22;100.00;96846.22;5010352;28;105698;-62
2021/12/21 11:30:12;;;;;;;18.13;13.23;;;;;;;-1.25;100.00;96835.31;5012808;28;105927;-62
2021/12/21 11:32:44;;;;;;;18.80;12.77;;;;;;;-0.99;100.00;96843.72;5010698;28;102596;-62
2021/12/21 11:38:00;;;;;;;20.50;12.77;;;;;;;-0.82;100.00;96832.22;5010143;28;101805;-62
2021/12/21 11:40:29;;;;;;;16.83;11.63;;;;;;;-0.88;100.00;96836.31;5011571;28;102398;-62
2021/12/21 11:43:15;;;;;;;16.93;12.17;;;;;;;-0.75;100.00;96833.16;5009583;28;105393;-62
2021/12/21 11:45:50;;;;;;;16.10;11.40;;;;;;;-0.72;100.00;96831.03;5006251;28;101870;-65
2021/12/21 11:48:29;;;;;;;21.10;14.10;;;;;;;-0.65;100.00;96826.78;4990119;28;105656;-63